Terminal Aerodrome Forecast
Issued by NWS

Home | Current Version | Previous Version | Text Only | Print | Product List | Glossary On
Versions: 1 2 3 4 5 6 7 8 9 10 11 12 13 14 15 16 17 18 19 20 21 22 23 24 25
868
FTUS45 KTFX 130358 AAA
TAFHVR
TAF AMD
KHVR 130358Z 1304/1324 07006KT P6SM VCFG BKN080 BKN180
      TEMPO 1305/1307 4SM BR BKN008
     FM130800 22010KT P6SM SCT070 BKN150
     FM131300 24011KT P6SM VCSH SCT040 BKN060
     FM131800 27015G25KT P6SM VCSH SCT060 BKN090=

USA.gov is the U.S. government's official web portal to all federal, state and local government web resources and services.